Terminal Aerodrome Forecast
Issued by NWS Central Illinois

Home | Current Version | Previous Version | Text Only | Print | Product List | Glossary On
Versions: 1 2 3 4 5 6 7 8 9 10 11 12 13 14 15 16 17 18 19
275
FTUS43 KILX 231725
TAFPIA
TAF
KPIA 231725Z 2318/2418 33010KT P6SM OVC008
     FM231900 34007KT P6SM OVC015
     FM240400 VRB03KT P6SM OVC012
     FM241000 14007KT 2SM BR OVC008
     FM241500 14008KT P6SM BKN015=

USA.gov is the U.S. government's official web portal to all federal, state and local government web resources and services.